Time;durP1;ratioP1;P1;durP2;ratioP2;P2;SDS_P1;SDS_P2;PMS_P1;PMS_P2;Temp;Humidity;BMP_temperature;BMP_pressure;BME280_temperature;BME280_humidity;BME280_pressure;Samples;Min_cycle;Max_cycle;Signal;HPM_P1;HPM_P2
2022/01/04 00:01:33;;;;;;;8.93;4.40;;;7.50;99.90;;;;;;5094459;28;20654;-70
2022/01/04 00:03:59;;;;;;;9.40;4.20;;;7.50;99.90;;;;;;5093351;28;20300;-70
2022/01/04 00:06:27;;;;;;;9.13;4.63;;;7.50;99.90;;;;;;5093123;28;20583;-69
2022/01/04 00:08:58;;;;;;;10.73;4.70;;;7.50;99.90;;;;;;5091122;28;20223;-69
2022/01/04 00:11:41;;;;;;;9.27;4.73;;;7.50;99.90;;;;;;5102080;28;20326;-69
2022/01/04 00:14:10;;;;;;;9.50;4.40;;;7.50;99.90;;;;;;5097540;28;20219;-70
2022/01/04 00:16:37;;;;;;;8.53;4.30;;;7.50;99.90;;;;;;5093394;28;20645;-70
2022/01/04 00:19:04;;;;;;;12.07;4.70;;;7.50;99.90;;;;;;5093525;28;20403;-67
2022/01/04 00:21:31;;;;;;;12.00;5.00;;;7.50;99.90;;;;;;5094179;28;20205;-68
2022/01/04 00:23:57;;;;;;;9.60;4.57;;;7.50;99.90;;;;;;5102315;28;20213;-68
2022/01/04 00:26:24;;;;;;;11.07;5.07;;;7.50;99.90;;;;;;5094592;28;20208;-67
2022/01/04 00:28:51;;;;;;;9.67;4.77;;;7.50;99.90;;;;;;5094328;28;20254;-68
2022/01/04 00:31:19;;;;;;;9.07;4.50;;;7.50;99.90;;;;;;5095516;28;20197;-69
2022/01/04 00:33:46;;;;;;;9.53;5.40;;;7.40;99.90;;;;;;5095591;28;20589;-69
2022/01/04 00:36:13;;;;;;;12.00;5.60;;;7.50;99.90;;;;;;5095780;28;20208;-68
2022/01/04 00:38:40;;;;;;;9.10;4.67;;;7.50;99.90;;;;;;5096631;28;20272;-67
2022/01/04 00:41:07;;;;;;;11.17;5.10;;;7.50;99.90;;;;;;5095727;28;20572;-67
2022/01/04 00:43:34;;;;;;;12.40;5.77;;;7.50;99.90;;;;;;5086216;28;20201;-67
2022/01/04 00:46:01;;;;;;;10.10;4.83;;;7.50;99.90;;;;;;5095655;28;20203;-66
2022/01/04 00:51:14;;;;;;;10.47;4.43;;;7.50;99.90;;;;;;5086561;28;20334;-66
2022/01/04 00:53:40;;;;;;;10.17;4.20;;;7.50;99.90;;;;;;5093682;28;20200;-68
2022/01/04 00:56:07;;;;;;;12.33;4.87;;;7.50;99.90;;;;;;5093631;28;20343;-68
2022/01/04 00:58:34;;;;;;;9.33;4.20;;;7.60;99.90;;;;;;5093322;28;20197;-68
2022/01/04 01:01:01;;;;;;;6.73;4.00;;;7.60;99.90;;;;;;5093440;28;20208;-67
2022/01/04 01:03:29;;;;;;;10.60;5.33;;;7.50;99.90;;;;;;5092678;28;20230;-67
2022/01/04 01:05:56;;;;;;;10.73;4.73;;;7.60;99.90;;;;;;5092694;28;20204;-67
2022/01/04 01:08:23;;;;;;;7.67;3.97;;;7.50;99.90;;;;;;5092314;28;20208;-67
2022/01/04 01:10:50;;;;;;;8.40;3.20;;;7.50;99.90;;;;;;5092765;28;20658;-67
2022/01/04 01:13:17;;;;;;;6.93;4.10;;;7.50;99.90;;;;;;5092886;28;20243;-67
2022/01/04 01:15:46;;;;;;;10.33;4.23;;;7.50;99.90;;;;;;5093129;28;20488;-67
2022/01/04 01:18:15;;;;;;;7.17;4.03;;;7.50;99.90;;;;;;5092432;28;20287;-67
2022/01/04 01:20:46;;;;;;;6.23;3.50;;;7.50;99.90;;;;;;5091016;28;20215;-68
2022/01/04 01:23:12;;;;;;;7.70;4.07;;;7.40;99.90;;;;;;5091991;28;20207;-68
2022/01/04 01:25:39;;;;;;;8.03;3.97;;;7.40;99.90;;;;;;5091145;28;20212;-68
2022/01/04 01:28:06;;;;;;;7.17;4.10;;;7.40;99.90;;;;;;5091468;28;20219;-67
2022/01/04 01:30:36;;;;;;;7.00;4.53;;;7.40;99.90;;;;;;5091382;28;20232;-68
2022/01/04 01:33:04;;;;;;;9.07;4.80;;;7.40;99.90;;;;;;5092048;28;20605;-68
2022/01/04 01:35:31;;;;;;;8.57;4.07;;;7.40;99.90;;;;;;5090661;28;20216;-67
2022/01/04 01:38:00;;;;;;;9.97;4.17;;;7.30;99.90;;;;;;5090617;28;20208;-67
2022/01/04 01:40:27;;;;;;;9.83;4.30;;;7.30;99.90;;;;;;5090762;28;20216;-67
2022/01/04 01:42:54;;;;;;;9.70;4.43;;;7.30;99.90;;;;;;5090744;28;20657;-67
2022/01/04 01:45:22;;;;;;;8.37;4.17;;;7.30;99.90;;;;;;5091361;28;20204;-67
2022/01/04 01:47:48;;;;;;;8.30;4.30;;;7.30;99.90;;;;;;5090399;28;20298;-67
2022/01/04 01:50:16;;;;;;;8.30;3.93;;;7.20;99.90;;;;;;5076506;28;20224;-67
2022/01/04 01:52:45;;;;;;;9.83;4.27;;;7.20;99.90;;;;;;5091126;28;20636;-67
2022/01/04 01:55:14;;;;;;;9.73;4.53;;;7.10;99.90;;;;;;5090976;28;20205;-67
2022/01/04 01:57:41;;;;;;;9.27;4.80;;;7.10;99.90;;;;;;5090779;28;20714;-67
2022/01/04 02:00:10;;;;;;;13.50;4.33;;;7.10;99.90;;;;;;5099553;28;20214;-68
2022/01/04 02:02:37;;;;;;;11.97;4.67;;;7.10;99.90;;;;;;5090665;28;20213;-68
2022/01/04 02:05:05;;;;;;;6.20;4.27;;;7.00;99.90;;;;;;5090868;28;20218;-67
2022/01/04 02:07:33;;;;;;;9.13;4.30;;;7.00;99.90;;;;;;5090687;28;20208;-68
2022/01/04 02:10:03;;;;;;;8.07;4.07;;;7.00;99.90;;;;;;5089887;28;20224;-68
2022/01/04 02:12:34;;;;;;;8.80;4.13;;;7.00;99.90;;;;;;5090712;28;20204;-67
2022/01/04 02:15:01;;;;;;;8.43;4.33;;;7.00;99.90;;;;;;5091450;28;20211;-67
2022/01/04 02:17:28;;;;;;;7.60;4.30;;;7.00;99.90;;;;;;5090619;28;20206;-67
2022/01/04 02:19:57;;;;;;;8.70;4.07;;;7.10;99.90;;;;;;5091739;28;20199;-67
2022/01/04 02:22:25;;;;;;;8.47;4.63;;;7.00;99.90;;;;;;5091101;28;20646;-68
2022/01/04 02:24:52;;;;;;;8.90;4.63;;;7.10;99.90;;;;;;5090446;28;20212;-68
2022/01/04 02:27:19;;;;;;;11.80;3.97;;;7.10;99.90;;;;;;5092262;28;20204;-67
2022/01/04 02:29:47;;;;;;;8.57;4.00;;;7.10;99.90;;;;;;5097119;28;20246;-68
2022/01/04 02:32:15;;;;;;;7.50;4.00;;;7.00;99.90;;;;;;5091360;28;20208;-67
2022/01/04 02:34:48;;;;;;;7.30;4.17;;;7.00;99.90;;;;;;5090881;28;20209;-68
2022/01/04 02:37:19;;;;;;;9.00;4.07;;;7.00;99.90;;;;;;5090845;28;20307;-66
2022/01/04 02:39:46;;;;;;;9.60;4.37;;;7.00;99.90;;;;;;5090683;28;20242;-67
2022/01/04 02:42:13;;;;;;;10.07;4.27;;;7.00;99.90;;;;;;5090949;28;20204;-67
2022/01/04 02:44:39;;;;;;;9.07;3.93;;;7.10;99.90;;;;;;5090648;28;20476;-68
2022/01/04 02:47:07;;;;;;;7.67;3.80;;;7.00;99.90;;;;;;5091027;28;20208;-68
2022/01/04 02:49:33;;;;;;;10.53;4.77;;;7.00;99.90;;;;;;5091234;28;20223;-68
2022/01/04 02:52:00;;;;;;;8.17;4.13;;;7.00;99.90;;;;;;5091398;28;20211;-66
2022/01/04 02:54:29;;;;;;;9.13;4.00;;;7.00;99.90;;;;;;5090694;28;20244;-67
2022/01/04 02:56:55;;;;;;;9.23;3.87;;;7.00;99.90;;;;;;5090768;28;20235;-67
2022/01/04 02:59:22;;;;;;;9.80;4.03;;;7.00;99.90;;;;;;5091830;28;20205;-67
2022/01/04 03:01:49;;;;;;;9.03;4.40;;;7.00;99.90;;;;;;5094076;28;20219;-68
2022/01/04 03:04:16;;;;;;;9.07;3.90;;;7.00;99.90;;;;;;5090874;28;20672;-68
2022/01/04 03:06:43;;;;;;;12.03;4.60;;;7.00;99.90;;;;;;5090563;28;20204;-67
2022/01/04 03:09:10;;;;;;;9.53;4.20;;;7.00;99.90;;;;;;5090548;28;20621;-67
2022/01/04 03:11:38;;;;;;;6.97;3.70;;;7.00;99.90;;;;;;5089950;28;20219;-68
2022/01/04 03:14:05;;;;;;;7.13;3.70;;;6.90;99.90;;;;;;5090914;28;20203;-67
2022/01/04 03:16:32;;;;;;;11.33;4.03;;;6.90;99.90;;;;;;5091037;28;20213;-67
2022/01/04 03:19:06;;;;;;;7.10;4.30;;;6.90;99.90;;;;;;5090687;28;20205;-67
2022/01/04 03:21:33;;;;;;;7.13;3.57;;;6.90;99.90;;;;;;5090175;28;20262;-67
2022/01/04 03:24:00;;;;;;;8.10;4.03;;;6.90;99.90;;;;;;5091020;28;20209;-67
2022/01/04 03:26:27;;;;;;;7.93;4.00;;;6.90;99.90;;;;;;5091569;28;20200;-67
2022/01/04 03:28:55;;;;;;;9.13;3.90;;;6.80;99.90;;;;;;5092013;28;20246;-67
2022/01/04 03:31:22;;;;;;;8.83;4.20;;;6.80;99.90;;;;;;5091321;28;20196;-67
2022/01/04 03:33:49;;;;;;;8.63;3.77;;;6.80;99.90;;;;;;5091153;28;20293;-67
2022/01/04 03:36:16;;;;;;;9.20;3.93;;;6.80;99.90;;;;;;5083033;28;20200;-68
2022/01/04 03:38:43;;;;;;;9.57;3.93;;;6.80;99.90;;;;;;5082582;28;20213;-67
2022/01/04 03:41:10;;;;;;;8.97;3.77;;;6.80;99.90;;;;;;5090719;28;20211;-66
2022/01/04 03:43:38;;;;;;;9.80;4.10;;;6.70;99.90;;;;;;5091144;28;20200;-68
2022/01/04 03:46:07;;;;;;;7.57;4.00;;;6.80;99.90;;;;;;5094396;28;20209;-67
2022/01/04 03:48:35;;;;;;;9.97;3.97;;;6.80;99.90;;;;;;5094089;28;20205;-67
2022/01/04 03:51:03;;;;;;;8.13;3.57;;;6.80;99.90;;;;;;5092754;28;20224;-67
2022/01/04 03:53:30;;;;;;;8.73;3.33;;;6.80;99.90;;;;;;5094450;28;20211;-66
2022/01/04 03:55:57;;;;;;;9.73;4.20;;;6.80;99.90;;;;;;5094502;28;20886;-67
2022/01/04 03:58:25;;;;;;;7.27;3.87;;;6.90;99.90;;;;;;5095365;28;20205;-68
2022/01/04 04:00:52;;;;;;;8.63;3.80;;;6.80;99.90;;;;;;5105453;28;20291;-67
2022/01/04 04:03:20;;;;;;;8.40;3.43;;;7.40;99.90;;;;;;5093316;28;20572;-68
2022/01/04 04:05:47;;;;;;;7.30;3.77;;;6.90;99.90;;;;;;5093535;28;20211;-68
2022/01/04 04:08:14;;;;;;;8.70;3.57;;;6.90;99.90;;;;;;5093462;28;20217;-67
2022/01/04 04:10:41;;;;;;;6.13;3.73;;;6.80;99.90;;;;;;5093595;28;20236;-67
2022/01/04 04:13:07;;;;;;;7.27;3.50;;;6.90;99.90;;;;;;5099865;28;20204;-66
2022/01/04 04:15:34;;;;;;;9.83;3.57;;;6.90;99.90;;;;;;5096662;28;20205;-67
2022/01/04 04:18:01;;;;;;;6.70;3.50;;;6.90;99.90;;;;;;5093177;28;20480;-67
2022/01/04 04:20:29;;;;;;;7.30;3.93;;;6.90;99.90;;;;;;5093579;28;20205;-67
2022/01/04 04:22:56;;;;;;;10.00;3.80;;;6.80;99.90;;;;;;5094658;28;20209;-67
2022/01/04 04:25:23;;;;;;;8.23;3.60;;;6.80;99.90;;;;;;5093648;28;20669;-66
2022/01/04 04:27:50;;;;;;;7.90;3.60;;;6.80;99.90;;;;;;5093531;28;20208;-67
2022/01/04 04:30:17;;;;;;;7.17;3.67;;;6.70;99.90;;;;;;5093045;28;20239;-67
2022/01/04 04:32:43;;;;;;;7.70;3.23;;;6.70;99.90;;;;;;5093637;28;20205;-68
2022/01/04 04:35:10;;;;;;;6.50;3.70;;;6.70;99.90;;;;;;5093216;28;20673;-66
2022/01/04 04:37:39;;;;;;;7.33;3.67;;;6.70;99.90;;;;;;5092739;28;20208;-66
2022/01/04 04:40:07;;;;;;;6.87;3.40;;;6.70;99.90;;;;;;5095583;28;20790;-66
2022/01/04 04:42:34;;;;;;;8.33;3.30;;;6.70;99.90;;;;;;5093162;28;20208;-67
2022/01/04 04:45:01;;;;;;;7.47;4.07;;;6.70;99.90;;;;;;5092461;28;20895;-67
2022/01/04 04:47:28;;;;;;;10.17;3.80;;;6.70;99.90;;;;;;5092821;28;20665;-68
2022/01/04 04:49:55;;;;;;;6.57;3.50;;;6.70;99.90;;;;;;5092466;28;20220;-68
2022/01/04 04:52:22;;;;;;;4.60;2.90;;;6.70;99.90;;;;;;5092824;28;20211;-68
2022/01/04 04:54:50;;;;;;;7.77;3.20;;;6.70;99.90;;;;;;5105829;28;20218;-67
2022/01/04 04:57:17;;;;;;;7.53;2.83;;;6.70;99.90;;;;;;5092232;28;20711;-68
2022/01/04 04:59:44;;;;;;;6.87;3.43;;;6.70;99.90;;;;;;5092221;28;20661;-68
2022/01/04 05:02:11;;;;;;;4.83;3.63;;;6.70;99.90;;;;;;5092395;28;20244;-67
2022/01/04 05:04:38;;;;;;;7.13;3.70;;;6.70;99.90;;;;;;5092757;28;20210;-67
2022/01/04 05:07:05;;;;;;;8.13;3.80;;;6.70;99.90;;;;;;5091912;28;20204;-67
2022/01/04 05:09:32;;;;;;;7.23;3.90;;;6.70;99.90;;;;;;5092722;28;20208;-67
2022/01/04 05:12:01;;;;;;;7.40;3.73;;;6.80;99.90;;;;;;5093806;28;20212;-67
2022/01/04 05:14:28;;;;;;;8.83;4.10;;;6.80;99.90;;;;;;5093409;28;20214;-67
2022/01/04 05:16:55;;;;;;;7.47;3.40;;;6.80;99.90;;;;;;5093170;28;20213;-67
2022/01/04 05:19:22;;;;;;;7.73;4.27;;;6.80;99.90;;;;;;5092530;28;20204;-68
2022/01/04 05:21:49;;;;;;;7.40;4.00;;;6.80;99.90;;;;;;5092727;28;20673;-67
2022/01/04 05:24:15;;;;;;;9.23;4.13;;;6.80;99.90;;;;;;5092016;28;20211;-67
2022/01/04 05:26:42;;;;;;;6.93;3.83;;;6.80;99.90;;;;;;5091613;28;20215;-69
2022/01/04 05:29:11;;;;;;;6.37;3.70;;;6.80;99.90;;;;;;5091241;28;20242;-68
2022/01/04 05:31:37;;;;;;;9.27;4.43;;;6.90;99.90;;;;;;5092584;28;20212;-66
2022/01/04 05:34:04;;;;;;;8.27;4.23;;;6.90;99.90;;;;;;5092418;28;20557;-67
2022/01/04 05:36:31;;;;;;;7.67;4.43;;;6.90;99.90;;;;;;5092713;28;20207;-66
2022/01/04 05:38:58;;;;;;;7.47;4.00;;;6.90;99.90;;;;;;5096228;28;20239;-66
2022/01/04 05:41:25;;;;;;;8.33;4.13;;;6.90;99.90;;;;;;5078357;28;20518;-68
2022/01/04 05:43:51;;;;;;;8.93;4.63;;;6.90;99.90;;;;;;5093502;28;20441;-67
2022/01/04 05:46:20;;;;;;;8.53;4.63;;;7.00;99.90;;;;;;5091966;28;20204;-67
2022/01/04 05:48:46;;;;;;;9.47;3.93;;;7.00;99.90;;;;;;5085189;28;20270;-67
2022/01/04 05:51:13;;;;;;;8.53;4.77;;;7.00;99.90;;;;;;5084690;28;20220;-67
2022/01/04 05:53:40;;;;;;;6.30;3.80;;;7.00;99.90;;;;;;5092562;28;20694;-67
2022/01/04 05:56:07;;;;;;;6.13;3.90;;;7.00;99.90;;;;;;5091654;28;20312;-67
2022/01/04 05:58:34;;;;;;;6.90;4.03;;;6.90;99.90;;;;;;5086464;28;20204;-66
2022/01/04 06:01:01;;;;;;;6.03;4.10;;;7.00;99.90;;;;;;5091830;28;20204;-67
2022/01/04 06:03:29;;;;;;;8.10;4.27;;;7.00;99.90;;;;;;5092291;28;20214;-68
2022/01/04 06:05:56;;;;;;;8.83;4.33;;;6.90;99.90;;;;;;5092300;28;20693;-67
2022/01/04 06:08:26;;;;;;;8.87;4.47;;;6.90;99.90;;;;;;5090998;28;20402;-67
2022/01/04 06:10:54;;;;;;;8.17;4.20;;;7.00;99.90;;;;;;5096044;28;20232;-68
2022/01/04 06:16:05;;;;;;;8.83;4.30;;;6.90;99.90;;;;;;5094698;28;20567;-67
2022/01/04 06:18:33;;;;;;;6.83;3.90;;;6.90;99.90;;;;;;5091724;28;20617;-66
2022/01/04 06:21:00;;;;;;;7.63;4.10;;;6.90;99.90;;;;;;5077919;28;20214;-67
2022/01/04 06:23:27;;;;;;;9.30;4.33;;;7.00;99.90;;;;;;5092847;28;20207;-68
2022/01/04 06:25:54;;;;;;;9.63;4.87;;;6.90;99.90;;;;;;5093699;28;20208;-67
2022/01/04 06:28:21;;;;;;;14.27;5.90;;;6.90;99.90;;;;;;5092464;28;20208;-67
2022/01/04 06:30:51;;;;;;;9.77;5.57;;;6.80;99.90;;;;;;5092906;28;20814;-67
2022/01/04 06:33:19;;;;;;;10.60;5.23;;;6.80;99.90;;;;;;5093033;28;20215;-67
2022/01/04 06:35:47;;;;;;;10.37;5.33;;;6.80;99.90;;;;;;5093389;28;20200;-67
2022/01/04 06:38:14;;;;;;;14.67;5.53;;;6.70;99.90;;;;;;5092278;28;20203;-67
2022/01/04 06:40:41;;;;;;;12.33;5.80;;;6.70;99.90;;;;;;5091529;28;20201;-67
2022/01/04 06:43:08;;;;;;;8.93;5.50;;;6.80;99.90;;;;;;5092185;28;20205;-67
2022/01/04 06:45:35;;;;;;;12.57;5.90;;;6.80;99.90;;;;;;5091740;28;20509;-68
2022/01/04 06:48:02;;;;;;;11.20;5.60;;;6.80;99.90;;;;;;5091439;28;20212;-67
2022/01/04 06:50:29;;;;;;;8.57;4.73;;;6.80;99.90;;;;;;5091267;28;20221;-67
2022/01/04 06:52:57;;;;;;;12.63;5.53;;;6.80;99.90;;;;;;5091510;28;20207;-67
2022/01/04 06:55:24;;;;;;;7.47;4.70;;;6.90;99.90;;;;;;5083813;28;20208;-66
2022/01/04 06:57:51;;;;;;;7.63;4.80;;;6.80;99.90;;;;;;5091812;28;20237;-67
2022/01/04 07:00:18;;;;;;;9.10;5.60;;;6.90;99.90;;;;;;5088225;28;20208;-67
2022/01/04 07:02:45;;;;;;;13.37;5.47;;;6.80;99.90;;;;;;5090997;28;20218;-67
2022/01/04 07:05:12;;;;;;;11.93;5.77;;;6.90;99.90;;;;;;5088417;28;20209;-67
2022/01/04 07:07:39;;;;;;;9.53;4.97;;;6.90;99.90;;;;;;5090764;28;20291;-67
2022/01/04 07:10:08;;;;;;;12.57;5.43;;;6.90;99.90;;;;;;5091792;28;20201;-69
2022/01/04 07:12:35;;;;;;;10.43;4.90;;;6.90;99.90;;;;;;5092126;28;20678;-68
2022/01/04 07:15:02;;;;;;;10.33;5.00;;;6.80;99.90;;;;;;5091162;28;20204;-68
2022/01/04 07:17:28;;;;;;;10.80;5.30;;;6.90;99.90;;;;;;5091528;28;20197;-66
2022/01/04 07:19:55;;;;;;;10.00;5.30;;;6.90;99.90;;;;;;5099032;28;20295;-69
2022/01/04 07:22:22;;;;;;;10.20;5.80;;;6.90;99.90;;;;;;5096389;28;20196;-68
2022/01/04 07:24:49;;;;;;;10.73;5.77;;;6.90;99.90;;;;;;5095551;28;20208;-68
2022/01/04 07:27:17;;;;;;;11.40;6.20;;;6.90;99.90;;;;;;5094618;28;20215;-68
2022/01/04 07:29:44;;;;;;;12.77;5.20;;;6.90;99.90;;;;;;5094371;28;20236;-69
2022/01/04 07:32:11;;;;;;;11.67;5.67;;;6.90;99.90;;;;;;5094491;28;20243;-70
2022/01/04 07:34:38;;;;;;;11.07;6.60;;;6.90;99.90;;;;;;5092197;28;20462;-68
2022/01/04 07:37:05;;;;;;;12.63;6.00;;;6.90;99.90;;;;;;5093900;28;20295;-69
2022/01/04 07:39:32;;;;;;;11.07;6.27;;;6.90;99.90;;;;;;5093275;28;20294;-68
2022/01/04 07:42:00;;;;;;;11.00;5.67;;;6.90;99.90;;;;;;5094928;28;20211;-68
2022/01/04 07:44:28;;;;;;;11.93;5.87;;;6.90;99.90;;;;;;5092773;28;20257;-68
2022/01/04 07:46:55;;;;;;;12.87;5.57;;;6.90;99.90;;;;;;5094495;28;20675;-67
2022/01/04 07:49:22;;;;;;;9.63;5.57;;;6.90;99.90;;;;;;5093725;28;20653;-68
2022/01/04 07:51:49;;;;;;;11.00;5.73;;;6.90;99.90;;;;;;5093034;28;20227;-68
2022/01/04 07:54:16;;;;;;;11.00;6.63;;;6.90;99.90;;;;;;5093886;28;20212;-68
2022/01/04 07:56:43;;;;;;;10.50;5.97;;;6.90;99.90;;;;;;5093706;28;20233;-69
2022/01/04 07:59:09;;;;;;;9.40;5.83;;;6.90;99.90;;;;;;5093165;28;20204;-67
2022/01/04 08:01:38;;;;;;;9.90;5.70;;;6.90;99.90;;;;;;5101436;28;20200;-68
2022/01/04 08:04:05;;;;;;;14.10;7.00;;;7.00;99.90;;;;;;5095133;28;20622;-67
2022/01/04 08:06:32;;;;;;;11.37;6.07;;;7.00;99.90;;;;;;5092617;28;20208;-68
2022/01/04 08:08:59;;;;;;;10.73;6.33;;;7.00;99.90;;;;;;5094358;28;20262;-69
2022/01/04 08:11:27;;;;;;;11.60;5.87;;;7.00;99.90;;;;;;5093257;28;20303;-68
2022/01/04 08:13:54;;;;;;;13.07;6.60;;;7.00;99.90;;;;;;5101354;28;20573;-69
2022/01/04 08:16:21;;;;;;;9.73;6.13;;;7.10;99.90;;;;;;5093672;28;20280;-69
2022/01/04 08:18:49;;;;;;;9.10;5.93;;;7.10;99.90;;;;;;5098692;28;20291;-68
2022/01/04 08:21:16;;;;;;;12.53;6.10;;;7.10;99.90;;;;;;5097495;28;20236;-68
2022/01/04 08:23:43;;;;;;;10.27;5.70;;;7.10;99.90;;;;;;5092931;28;20207;-68
2022/01/04 08:26:10;;;;;;;10.87;6.40;;;7.20;99.90;;;;;;5094630;28;20200;-69
2022/01/04 08:28:37;;;;;;;11.30;6.13;;;7.30;99.90;;;;;;5093699;28;20575;-68
2022/01/04 08:31:04;;;;;;;10.30;5.40;;;7.40;99.90;;;;;;5093613;28;20220;-69
2022/01/04 08:33:30;;;;;;;10.03;5.53;;;7.60;99.90;;;;;;5094023;28;20200;-69
2022/01/04 08:35:59;;;;;;;9.40;6.10;;;7.70;99.90;;;;;;5094260;28;20196;-69
2022/01/04 08:38:25;;;;;;;9.97;6.13;;;7.80;99.90;;;;;;5095348;28;20575;-69
2022/01/04 08:40:52;;;;;;;9.27;5.27;;;7.80;99.90;;;;;;5089450;28;20204;-69
2022/01/04 08:43:19;;;;;;;10.70;6.07;;;7.90;99.90;;;;;;5094174;28;20243;-69
2022/01/04 08:45:47;;;;;;;11.67;5.60;;;7.90;99.90;;;;;;5096209;28;20729;-70
2022/01/04 08:48:13;;;;;;;12.10;6.03;;;7.90;99.90;;;;;;5093758;28;20204;-70
2022/01/04 08:50:41;;;;;;;12.73;5.63;;;7.90;99.90;;;;;;5093645;28;20301;-69
2022/01/04 08:53:13;;;;;;;10.20;5.93;;;7.90;99.90;;;;;;5093849;28;20204;-68
2022/01/04 08:55:40;;;;;;;7.87;5.73;;;7.90;99.90;;;;;;5093777;28;20269;-69
2022/01/04 08:58:07;;;;;;;9.63;6.23;;;7.90;99.90;;;;;;5101564;28;20315;-68
2022/01/04 09:00:36;;;;;;;11.03;5.67;;;7.90;99.90;;;;;;5094597;28;20207;-70
2022/01/04 09:03:04;;;;;;;7.10;5.33;;;7.90;99.90;;;;;;5093472;28;20211;-70
2022/01/04 09:05:31;;;;;;;7.80;5.47;;;7.90;99.90;;;;;;5093477;28;20208;-70
2022/01/04 09:07:58;;;;;;;8.07;5.37;;;8.00;99.90;;;;;;5094592;28;20228;-70
2022/01/04 09:10:26;;;;;;;7.03;5.17;;;8.10;99.90;;;;;;5093450;28;20283;-69
2022/01/04 09:12:59;;;;;;;7.87;5.73;;;8.10;99.90;;;;;;5099206;28;20243;-70
2022/01/04 09:15:46;;;;;;;5.83;4.77;;;8.20;99.90;;;;;;5099025;28;20917;-70
2022/01/04 09:21:04;;;;;;;9.47;5.10;;;8.30;99.90;;;;;;5075643;28;20224;-69
2022/01/04 09:23:31;;;;;;;7.93;5.40;;;8.20;99.90;;;;;;5095636;28;20215;-70
2022/01/04 09:25:59;;;;;;;9.20;5.50;;;8.20;99.90;;;;;;5094688;28;20200;-70
2022/01/04 09:28:27;;;;;;;8.77;5.83;;;8.10;99.90;;;;;;5094455;28;20323;-70
2022/01/04 09:30:54;;;;;;;9.00;5.47;;;8.20;99.90;;;;;;5094585;28;20219;-69
2022/01/04 09:33:21;;;;;;;8.00;4.93;;;8.10;99.90;;;;;;5096231;28;20200;-71
2022/01/04 09:35:49;;;;;;;8.20;5.20;;;8.00;99.90;;;;;;5092111;28;20295;-72
2022/01/04 09:38:17;;;;;;;7.87;5.17;;;8.00;99.90;;;;;;5094406;28;20205;-71
2022/01/04 09:40:44;;;;;;;9.57;6.20;;;8.00;99.90;;;;;;5093005;28;20575;-71
2022/01/04 09:43:13;;;;;;;8.10;5.93;;;8.10;99.90;;;;;;5091869;28;20473;-68
2022/01/04 09:45:40;;;;;;;8.00;5.70;;;8.30;99.90;;;;;;5092036;28;20287;-66
2022/01/04 09:48:07;;;;;;;10.23;6.43;;;8.30;99.90;;;;;;5084120;28;20493;-66
2022/01/04 09:50:37;;;;;;;9.63;6.68;;;8.40;99.90;;;;;;5090514;28;20492;-66
2022/01/04 09:53:06;;;;;;;9.37;5.40;;;8.50;99.90;;;;;;5091115;28;20573;-65
2022/01/04 09:55:34;;;;;;;8.10;5.67;;;8.50;99.90;;;;;;5098859;28;20280;-66
2022/01/04 09:58:01;;;;;;;9.38;6.45;;;8.50;99.90;;;;;;5099292;28;20866;-69
2022/01/04 10:00:30;;;;;;;10.40;5.77;;;8.50;99.90;;;;;;5098545;28;20197;-68
2022/01/04 10:03:11;;;;;;;9.13;5.33;;;8.50;99.90;;;;;;5091587;28;20216;-68
2022/01/04 10:05:39;;;;;;;9.50;5.73;;;8.50;99.90;;;;;;5096086;28;20212;-68
2022/01/04 10:08:07;;;;;;;9.47;5.87;;;8.40;99.90;;;;;;5099440;28;20288;-68
2022/01/04 10:10:36;;;;;;;10.20;5.90;;;8.40;99.90;;;;;;5091749;28;20795;-67
2022/01/04 10:13:05;;;;;;;9.43;5.63;;;8.40;99.90;;;;;;5091645;28;20238;-66
2022/01/04 10:15:36;;;;;;;10.80;6.07;;;8.40;99.90;;;;;;5092450;28;20215;-70
2022/01/04 10:18:17;;;;;;;8.27;5.77;;;8.40;99.90;;;;;;5092337;28;20577;-67
2022/01/04 10:20:46;;;;;;;8.50;5.97;;;8.30;99.90;;;;;;5092541;28;20211;-67
2022/01/04 10:23:14;;;;;;;7.73;6.03;;;8.40;99.90;;;;;;5090160;28;20219;-68
2022/01/04 10:25:42;;;;;;;7.80;5.70;;;8.30;99.90;;;;;;5090343;28;20217;-70
2022/01/04 10:28:09;;;;;;;8.10;5.73;;;8.30;99.90;;;;;;5086434;28;20205;-68
2022/01/04 10:30:39;;;;;;;10.60;6.13;;;8.30;99.90;;;;;;5108219;28;20686;-69
2022/01/04 10:33:08;;;;;;;8.37;6.23;;;8.30;99.90;;;;;;5090396;28;20784;-67
2022/01/04 10:35:37;;;;;;;8.47;5.50;;;8.20;99.90;;;;;;5089313;28;20207;-68
2022/01/04 10:38:13;;;;;;;9.30;6.10;;;8.20;99.90;;;;;;5089100;28;20571;-69
2022/01/04 10:40:43;;;;;;;10.53;5.67;;;8.10;99.90;;;;;;5090746;28;20204;-68
2022/01/04 10:43:13;;;;;;;8.67;6.00;;;8.10;99.90;;;;;;5091507;28;20200;-67
2022/01/04 10:45:42;;;;;;;11.17;6.80;;;8.10;99.90;;;;;;5091751;28;20579;-67
2022/01/04 10:48:15;;;;;;;8.30;5.57;;;8.10;99.90;;;;;;5091389;28;20308;-66
2022/01/04 10:50:44;;;;;;;8.10;5.60;;;8.00;99.90;;;;;;5091539;28;20662;-67
2022/01/04 10:53:28;;;;;;;8.57;5.43;;;8.10;99.90;;;;;;5092355;28;20221;-67
2022/01/04 10:55:59;;;;;;;7.77;5.17;;;8.10;99.90;;;;;;5088549;28;20203;-68
2022/01/04 10:58:29;;;;;;;8.67;4.90;;;8.20;99.90;;;;;;5095507;28;20196;-67
2022/01/04 11:01:00;;;;;;;6.60;5.40;;;8.20;99.90;;;;;;5083429;28;20582;-67
2022/01/04 11:03:33;;;;;;;7.00;4.60;;;8.20;99.90;;;;;;5095241;28;20332;-67
2022/01/04 11:06:04;;;;;;;6.47;5.33;;;8.20;99.90;;;;;;5102046;28;20205;-66
2022/01/04 11:08:31;;;;;;;8.17;6.13;;;8.20;99.90;;;;;;5094879;28;20222;-67
2022/01/04 11:10:58;;;;;;;9.10;5.87;;;8.30;99.90;;;;;;5093595;28;20208;-68
2022/01/04 11:13:25;;;;;;;9.73;5.83;;;8.30;99.90;;;;;;5093831;28;20220;-68
2022/01/04 11:15:52;;;;;;;9.20;6.37;;;8.30;99.90;;;;;;5094227;28;20269;-67
2022/01/04 11:18:21;;;;;;;9.67;7.03;;;8.30;99.90;;;;;;5094497;28;20291;-68
2022/01/04 11:20:49;;;;;;;7.37;5.57;;;8.30;99.90;;;;;;5082231;28;20288;-67
2022/01/04 11:23:17;;;;;;;7.00;5.47;;;8.30;99.90;;;;;;5092784;28;20223;-68
2022/01/04 11:25:46;;;;;;;8.77;6.43;;;8.40;99.90;;;;;;5093796;28;20208;-68
2022/01/04 11:28:16;;;;;;;8.77;5.40;;;8.40;99.90;;;;;;5093648;28;20649;-69
2022/01/04 11:31:16;;;;;;;9.10;6.63;;;8.30;99.90;;;;;;5094957;28;20720;-68
2022/01/04 11:33:53;;;;;;;9.67;6.57;;;8.40;99.90;;;;;;5040412;28;20241;-68
2022/01/04 11:36:21;;;;;;;8.60;6.00;;;8.40;99.90;;;;;;5093804;28;20217;-68
2022/01/04 11:38:49;;;;;;;7.40;5.63;;;8.40;99.90;;;;;;5087458;28;20208;-67
2022/01/04 11:41:23;;;;;;;6.97;5.70;;;8.50;99.90;;;;;;5094238;28;20200;-67
2022/01/04 11:43:50;;;;;;;7.00;5.50;;;8.50;99.90;;;;;;5096087;28;20264;-67
2022/01/04 11:46:36;;;;;;;9.80;5.63;;;8.50;99.90;;;;;;5093929;28;20617;-67
2022/01/04 11:49:13;;;;;;;8.50;4.87;;;8.40;99.90;;;;;;5093590;28;20570;-68
2022/01/04 11:51:43;;;;;;;6.63;5.13;;;8.50;99.90;;;;;;5093363;28;20249;-67
2022/01/04 11:54:20;;;;;;;6.70;5.17;;;8.40;99.90;;;;;;5095191;28;20235;-67
2022/01/04 11:56:50;;;;;;;6.40;5.00;;;8.30;99.90;;;;;;5092392;27;20714;-66
2022/01/04 11:59:22;;;;;;;7.70;5.37;;;8.30;99.90;;;;;;5093380;28;20210;-67
2022/01/04 12:01:49;;;;;;;8.47;5.13;;;8.30;99.90;;;;;;5093911;28;20663;-67
2022/01/04 12:04:49;;;;;;;8.37;5.30;;;8.30;99.90;;;;;;5089857;28;20208;-71
2022/01/04 12:07:45;;;;;;;9.33;5.63;;;8.30;99.90;;;;;;5093248;28;20666;-67
2022/01/04 12:10:41;;;;;;;7.67;5.30;;;8.20;99.90;;;;;;5088686;28;20213;-67
2022/01/04 12:13:11;;;;;;;9.27;5.23;;;8.30;99.90;;;;;;5093034;28;20577;-67
2022/01/04 12:15:58;;;;;;;7.77;5.30;;;8.20;99.90;;;;;;5092385;28;20201;-67
2022/01/04 12:19:00;;;;;;;7.07;5.03;;;8.20;99.90;;;;;;5097787;28;20205;-68
2022/01/04 12:21:43;;;;;;;9.23;5.57;;;8.30;99.90;;;;;;5080707;28;20250;-69
2022/01/04 12:24:13;;;;;;;7.37;5.43;;;8.30;99.90;;;;;;5091416;28;20287;-68
2022/01/04 12:26:42;;;;;;;8.80;5.50;;;8.20;99.90;;;;;;5086476;28;20211;-69
2022/01/04 12:29:32;;;;;;;9.77;5.43;;;8.20;99.90;;;;;;5090902;28;20784;-68
2022/01/04 12:32:06;;;;;;;9.77;5.37;;;8.20;99.90;;;;;;5089063;28;20218;-66
2022/01/04 12:34:49;;;;;;;10.47;5.73;;;8.20;99.90;;;;;;5085761;28;20201;-65
2022/01/04 12:37:19;;;;;;;8.43;5.77;;;8.20;99.90;;;;;;5086897;28;20608;-66
2022/01/04 12:39:48;;;;;;;9.17;5.67;;;8.20;99.90;;;;;;5088605;28;20200;-68
2022/01/04 12:42:16;;;;;;;8.20;6.10;;;8.20;99.90;;;;;;5091489;28;20196;-68
2022/01/04 12:44:44;;;;;;;10.77;6.57;;;8.10;99.90;;;;;;5092652;28;20626;-67
2022/01/04 12:47:11;;;;;;;8.97;5.53;;;8.10;99.90;;;;;;5092086;28;20215;-67
2022/01/04 12:49:38;;;;;;;9.27;5.80;;;8.10;99.90;;;;;;5106694;28;20207;-67
2022/01/04 12:52:07;;;;;;;8.00;5.63;;;8.10;99.90;;;;;;5079512;28;20593;-66
2022/01/04 12:54:37;;;;;;;10.00;6.23;;;8.10;99.90;;;;;;5092570;28;20291;-67
2022/01/04 12:57:06;;;;;;;13.83;7.53;;;8.00;99.90;;;;;;5092454;28;20225;-67
2022/01/04 12:59:37;;;;;;;10.53;6.07;;;8.10;99.90;;;;;;5092568;28;20263;-63
2022/01/04 13:02:11;;;;;;;10.20;6.57;;;8.00;99.90;;;;;;5089878;28;20289;-66
2022/01/04 13:04:41;;;;;;;10.67;6.23;;;8.10;99.90;;;;;;5091412;28;20204;-67
2022/01/04 13:07:19;;;;;;;10.30;6.90;;;8.00;99.90;;;;;;5092415;28;20268;-67
2022/01/04 13:09:53;;;;;;;9.87;6.97;;;8.00;99.90;;;;;;5092447;28;20197;-67
2022/01/04 13:12:33;;;;;;;9.93;7.00;;;8.00;99.90;;;;;;5091575;28;20212;-67